Time;durP1;ratioP1;P1;durP2;ratioP2;P2;SDS_P1;SDS_P2;PMS_P1;PMS_P2;Temp;Humidity;BMP_temperature;BMP_pressure;BME280_temperature;BME280_humidity;BME280_pressure;Samples;Min_cycle;Max_cycle;Signal;HPM_P1;HPM_P2
2021/10/10 00:00:30;;;;;;;;;;;;;;;;;;5042043;28;19905;-69
2021/10/10 00:02:55;;;;;;;;;;;;;;;;;;5039101;28;19920;-69
2021/10/10 00:05:21;;;;;;;;;;;;;;;;;;5031667;28;19905;-69
2021/10/10 00:07:46;;;;;;;;;;;;;;;;;;5045681;28;19922;-69
2021/10/10 00:10:11;;;;;;;;;;;;;;;;;;5048562;28;19901;-69
2021/10/10 00:12:37;;;;;;;;;;;;;;;;;;5049073;28;19981;-69
2021/10/10 00:15:02;;;;;;;;;;;;;;;;;;5048669;28;19909;-69
2021/10/10 00:17:28;;;;;;;;;;;;;;;;;;5048100;28;19936;-69
2021/10/10 00:19:53;;;;;;;;;;;;;;;;;;5053682;28;19964;-69
2021/10/10 00:22:18;;;;;;;;;;;;;;;;;;5040307;28;19909;-69
2021/10/10 00:24:43;;;;;;;;;;;;;;;;;;5049331;28;19913;-69
2021/10/10 00:27:08;;;;;;;;;;;;;;;;;;5047576;28;19923;-69
2021/10/10 00:29:34;;;;;;;;;;;;;;;;;;5050247;28;20006;-70
2021/10/10 00:32:01;;;;;;;;;;;;;;;;;;5046379;28;19941;-69
2021/10/10 00:34:26;;;;;;;;;;;;;;;;;;5039560;28;19916;-69
2021/10/10 00:36:52;;;;;;;;;;;;;;;;;;5049669;28;20031;-69
2021/10/10 00:39:17;;;;;;;;;;;;;;;;;;5049377;28;19921;-69
2021/10/10 00:41:42;;;;;;;;;;;;;;;;;;5047816;28;19924;-69
2021/10/10 00:44:07;;;;;;;;;;;;;;;;;;5046505;28;19905;-68
2021/10/10 00:46:33;;;;;;;;;;;;;;;;;;5051764;28;19981;-68
2021/10/10 00:48:58;;;;;;;;;;;;;;;;;;5048352;28;19905;-68
2021/10/10 00:51:23;;;;;;;;;;;;;;;;;;5038434;28;20040;-68
2021/10/10 00:53:48;;;;;;;;;;;;;;;;;;5047401;28;19935;-68
2021/10/10 00:56:14;;;;;;;;;;;;;;;;;;5048101;28;19931;-68
2021/10/10 00:58:39;;;;;;;;;;;;;;;;;;5048467;28;19907;-67
2021/10/10 01:01:04;;;;;;;;;;;;;;;;;;5048812;28;19990;-68
2021/10/10 01:03:29;;;;;;;;;;;;;;;;;;5037143;28;20142;-68
2021/10/10 01:05:54;;;;;;;;;;;;;;;;;;5032489;28;19910;-67
2021/10/10 01:08:20;;;;;;;;;;;;;;;;;;5049081;28;19913;-68
2021/10/10 01:10:45;;;;;;;;;;;;;;;;;;5049549;28;19931;-67
2021/10/10 01:13:10;;;;;;;;;;;;;;;;;;5048012;28;19909;-67
2021/10/10 01:15:35;;;;;;;;;;;;;;;;;;5049036;28;19916;-67
2021/10/10 01:18:00;;;;;;;;;;;;;;;;;;5051262;28;19913;-67
2021/10/10 01:20:26;;;;;;;;;;;;;;;;;;5046799;28;19920;-67
2021/10/10 01:22:51;;;;;;;;;;;;;;;;;;5046303;28;20045;-68
2021/10/10 01:25:16;;;;;;;;;;;;;;;;;;5044919;28;19921;-68
2021/10/10 01:27:41;;;;;;;;;;;;;;;;;;5044658;28;19921;-68
2021/10/10 01:30:07;;;;;;;;;;;;;;;;;;5047828;28;19912;-67
2021/10/10 01:32:32;;;;;;;;;;;;;;;;;;5044534;28;19924;-68
2021/10/10 01:34:57;;;;;;;;;;;;;;;;;;5047071;28;19967;-68
2021/10/10 01:37:22;;;;;;;;;;;;;;;;;;5047002;28;20084;-68
2021/10/10 01:39:47;;;;;;;;;;;;;;;;;;5044254;28;19905;-67
2021/10/10 01:42:13;;;;;;;;;;;;;;;;;;5047632;28;20188;-69
2021/10/10 01:44:38;;;;;;;;;;;;;;;;;;5045231;28;20116;-68
2021/10/10 01:47:03;;;;;;;;;;;;;;;;;;5045243;28;19921;-68
2021/10/10 01:49:28;;;;;;;;;;;;;;;;;;5046866;28;20008;-68
2021/10/10 01:51:54;;;;;;;;;;;;;;;;;;5046153;28;19924;-68
2021/10/10 01:54:19;;;;;;;;;;;;;;;;;;5045466;28;19901;-68
2021/10/10 01:56:44;;;;;;;;;;;;;;;;;;5043087;28;20008;-68
2021/10/10 01:59:09;;;;;;;;;;;;;;;;;;5045591;28;19955;-68
2021/10/10 02:01:34;;;;;;;;;;;;;;;;;;5045685;28;19924;-68
2021/10/10 02:04:02;;;;;;;;;;;;;;;;;;5043953;28;20076;-68
2021/10/10 02:06:27;;;;;;;;;;;;;;;;;;5050659;28;19908;-68
2021/10/10 02:08:52;;;;;;;;;;;;;;;;;;5034710;28;19916;-68
2021/10/10 02:11:18;;;;;;;;;;;;;;;;;;5012011;28;19983;-68
2021/10/10 02:13:43;;;;;;;;;;;;;;;;;;5049735;28;19937;-68
2021/10/10 02:16:09;;;;;;;;;;;;;;;;;;5044980;28;19905;-69
2021/10/10 02:18:35;;;;;;;;;;;;;;;;;;5044470;28;19973;-69
2021/10/10 02:21:00;;;;;;;;;;;;;;;;;;5015215;28;19924;-68
2021/10/10 02:23:26;;;;;;;;;;;;;;;;;;5031811;28;19977;-68
2021/10/10 02:25:52;;;;;;;;;;;;;;;;;;5042836;28;19914;-68
2021/10/10 02:28:18;;;;;;;;;;;;;;;;;;5044381;28;19929;-68
2021/10/10 02:30:47;;;;;;;;;;;;;;;;;;5047569;28;19909;-68
2021/10/10 02:33:13;;;;;;;;;;;;;;;;;;5043020;28;19921;-68
2021/10/10 02:35:38;;;;;;;;;;;;;;;;;;5049347;28;19928;-68
2021/10/10 02:38:03;;;;;;;;;;;;;;;;;;5050061;28;19921;-68
2021/10/10 02:40:29;;;;;;;;;;;;;;;;;;5046029;28;19914;-68
2021/10/10 02:42:54;;;;;;;;;;;;;;;;;;5041895;28;19917;-68
2021/10/10 02:45:20;;;;;;;;;;;;;;;;;;5046312;28;19961;-69
2021/10/10 02:47:45;;;;;;;;;;;;;;;;;;5044421;28;19912;-68
2021/10/10 02:50:11;;;;;;;;;;;;;;;;;;5028769;28;19912;-69
2021/10/10 02:52:36;;;;;;;;;;;;;;;;;;5033844;28;19912;-68
2021/10/10 02:55:01;;;;;;;;;;;;;;;;;;5033810;28;19944;-68
2021/10/10 02:57:27;;;;;;;;;;;;;;;;;;5047785;28;19921;-68
2021/10/10 02:59:52;;;;;;;;;;;;;;;;;;5043983;28;19913;-68
2021/10/10 03:02:17;;;;;;;;;;;;;;;;;;5040672;28;19980;-68
2021/10/10 03:04:42;;;;;;;;;;;;;;;;;;5051010;28;19912;-68
2021/10/10 03:07:07;;;;;;;;;;;;;;;;;;5044931;28;19992;-68
2021/10/10 03:09:33;;;;;;;;;;;;;;;;;;5047491;28;19917;-68
2021/10/10 03:11:58;;;;;;;;;;;;;;;;;;5017715;28;19913;-68
2021/10/10 03:14:23;;;;;;;;;;;;;;;;;;5045076;28;19905;-68
2021/10/10 03:16:48;;;;;;;;;;;;;;;;;;5045643;28;19921;-68
2021/10/10 03:19:14;;;;;;;;;;;;;;;;;;5051232;28;19977;-68
2021/10/10 03:21:39;;;;;;;;;;;;;;;;;;5045418;28;20252;-68
2021/10/10 03:24:04;;;;;;;;;;;;;;;;;;5046854;28;19933;-68
2021/10/10 03:26:29;;;;;;;;;;;;;;;;;;5042202;28;19916;-68
2021/10/10 03:28:54;;;;;;;;;;;;;;;;;;5042456;28;19932;-68
2021/10/10 03:31:20;;;;;;;;;;;;;;;;;;5043402;28;20016;-68
2021/10/10 03:33:45;;;;;;;;;;;;;;;;;;5051243;28;19920;-68
2021/10/10 03:36:10;;;;;;;;;;;;;;;;;;5047572;28;19965;-68
2021/10/10 03:38:36;;;;;;;;;;;;;;;;;;5045989;28;19932;-68
2021/10/10 03:41:01;;;;;;;;;;;;;;;;;;5044173;28;19989;-69
2021/10/10 03:43:26;;;;;;;;;;;;;;;;;;5040148;28;19913;-68
2021/10/10 03:45:51;;;;;;;;;;;;;;;;;;5049118;28;19920;-68
2021/10/10 03:48:16;;;;;;;;;;;;;;;;;;5033303;28;19932;-69
2021/10/10 03:50:42;;;;;;;;;;;;;;;;;;5044815;28;19911;-68
2021/10/10 03:53:07;;;;;;;;;;;;;;;;;;5042963;28;19913;-68
2021/10/10 03:57:57;;;;;;;;;;;;;;;;;;5043883;28;19939;-68
2021/10/10 04:00:23;;;;;;;;;;;;;;;;;;5045299;28;20250;-68
2021/10/10 04:02:49;;;;;;;;;;;;;;;;;;5044759;28;19924;-68
2021/10/10 04:05:23;;;;;;;;;;;;;;;;;;5045245;28;19925;-69
2021/10/10 04:07:48;;;;;;;;;;;;;;;;;;5044302;28;19913;-68
2021/10/10 04:10:14;;;;;;;;;;;;;;;;;;5043329;28;19927;-68
2021/10/10 04:12:39;;;;;;;;;;;;;;;;;;5040711;28;19909;-67
2021/10/10 04:15:04;;;;;;;;;;;;;;;;;;5043896;28;19913;-68
2021/10/10 04:17:29;;;;;;;;;;;;;;;;;;5051435;28;19924;-68
2021/10/10 04:19:54;;;;;;;;;;;;;;;;;;5044846;28;19906;-68
2021/10/10 04:22:19;;;;;;;;;;;;;;;;;;5033264;28;19913;-69
2021/10/10 04:24:45;;;;;;;;;;;;;;;;;;5024886;28;19905;-68
2021/10/10 04:27:10;;;;;;;;;;;;;;;;;;5041916;28;19905;-68
2021/10/10 04:29:35;;;;;;;;;;;;;;;;;;5032345;28;19909;-68
2021/10/10 04:32:00;;;;;;;;;;;;;;;;;;5044410;28;20216;-68
2021/10/10 04:34:26;;;;;;;;;;;;;;;;;;5043062;28;19936;-68
2021/10/10 04:36:51;;;;;;;;;;;;;;;;;;5041273;28;19979;-68
2021/10/10 04:39:16;;;;;;;;;;;;;;;;;;5042178;28;19913;-68
2021/10/10 04:41:41;;;;;;;;;;;;;;;;;;5043096;28;19905;-68
2021/10/10 04:44:07;;;;;;;;;;;;;;;;;;5033184;28;19914;-68
2021/10/10 04:46:32;;;;;;;;;;;;;;;;;;5032933;28;19940;-68
2021/10/10 04:48:57;;;;;;;;;;;;;;;;;;5042377;28;19933;-68
2021/10/10 04:51:22;;;;;;;;;;;;;;;;;;5047067;28;19917;-68
2021/10/10 04:53:47;;;;;;;;;;;;;;;;;;5043373;28;19913;-68
2021/10/10 04:56:13;;;;;;;;;;;;;;;;;;5046039;28;19913;-68
2021/10/10 04:58:38;;;;;;;;;;;;;;;;;;5044395;28;19922;-68
2021/10/10 05:01:03;;;;;;;;;;;;;;;;;;5046111;28;19932;-68
2021/10/10 05:03:28;;;;;;;;;;;;;;;;;;5036046;28;19940;-68
2021/10/10 05:05:53;;;;;;;;;;;;;;;;;;5033075;28;19905;-68
2021/10/10 05:08:19;;;;;;;;;;;;;;;;;;5045585;28;19906;-68
2021/10/10 05:10:44;;;;;;;;;;;;;;;;;;5046086;28;19913;-69
2021/10/10 05:13:09;;;;;;;;;;;;;;;;;;5035650;28;19901;-69
2021/10/10 05:15:34;;;;;;;;;;;;;;;;;;5046271;28;19906;-69
2021/10/10 05:17:59;;;;;;;;;;;;;;;;;;5037071;28;19901;-69
2021/10/10 05:20:25;;;;;;;;;;;;;;;;;;5045778;28;19918;-69
2021/10/10 05:22:50;;;;;;;;;;;;;;;;;;5047673;28;19929;-69
2021/10/10 05:25:16;;;;;;;;;;;;;;;;;;5048543;28;19905;-68
2021/10/10 05:27:41;;;;;;;;;;;;;;;;;;5035293;28;19977;-69
2021/10/10 05:30:06;;;;;;;;;;;;;;;;;;5047528;28;19905;-69
2021/10/10 05:32:31;;;;;;;;;;;;;;;;;;5045334;28;19941;-68
2021/10/10 05:34:56;;;;;;;;;;;;;;;;;;5045517;28;19932;-69
2021/10/10 05:37:22;;;;;;;;;;;;;;;;;;5028971;28;19913;-69
2021/10/10 05:39:47;;;;;;;;;;;;;;;;;;5031436;28;19913;-69
2021/10/10 05:42:13;;;;;;;;;;;;;;;;;;5049072;28;19977;-69
2021/10/10 05:44:38;;;;;;;;;;;;;;;;;;5043542;28;20012;-68
2021/10/10 05:47:03;;;;;;;;;;;;;;;;;;5048965;28;19996;-69
2021/10/10 05:49:28;;;;;;;;;;;;;;;;;;5045945;28;19921;-69
2021/10/10 05:51:54;;;;;;;;;;;;;;;;;;5045231;28;19905;-69
2021/10/10 05:54:21;;;;;;;;;;;;;;;;;;5035801;28;19913;-69
2021/10/10 05:56:46;;;;;;;;;;;;;;;;;;5045517;28;19905;-69
2021/10/10 05:59:15;;;;;;;;;;;;;;;;;;5037034;28;19936;-69
2021/10/10 06:01:40;;;;;;;;;;;;;;;;;;5034599;28;19969;-69
2021/10/10 06:04:05;;;;;;;;;;;;;;;;;;5044077;28;19914;-69
2021/10/10 06:06:30;;;;;;;;;;;;;;;;;;5033604;28;19905;-68
2021/10/10 06:08:55;;;;;;;;;;;;;;;;;;5048049;28;19905;-68
2021/10/10 06:11:20;;;;;;;;;;;;;;;;;;5052895;28;19986;-69
2021/10/10 06:13:46;;;;;;;;;;;;;;;;;;5045134;28;19933;-69
2021/10/10 06:16:11;;;;;;;;;;;;;;;;;;5044142;28;19909;-69
2021/10/10 06:18:36;;;;;;;;;;;;;;;;;;5047742;28;19975;-68
2021/10/10 06:21:01;;;;;;;;;;;;;;;;;;5044074;28;19912;-69
2021/10/10 06:23:27;;;;;;;;;;;;;;;;;;5050200;28;19955;-69
2021/10/10 06:25:52;;;;;;;;;;;;;;;;;;5043746;28;19905;-69
2021/10/10 06:28:17;;;;;;;;;;;;;;;;;;5046356;28;19905;-69
2021/10/10 06:30:42;;;;;;;;;;;;;;;;;;5044207;28;19909;-69
2021/10/10 06:33:08;;;;;;;;;;;;;;;;;;5046278;28;19913;-69
2021/10/10 06:35:33;;;;;;;;;;;;;;;;;;5046528;28;19984;-69
2021/10/10 06:37:58;;;;;;;;;;;;;;;;;;5047513;28;19913;-69
2021/10/10 06:40:23;;;;;;;;;;;;;;;;;;5049067;28;19905;-69
2021/10/10 06:42:49;;;;;;;;;;;;;;;;;;5033733;28;19932;-69
2021/10/10 06:45:14;;;;;;;;;;;;;;;;;;5033510;28;20023;-68
2021/10/10 06:47:40;;;;;;;;;;;;;;;;;;5043247;28;20281;-68
2021/10/10 06:50:05;;;;;;;;;;;;;;;;;;5033551;28;19920;-68
2021/10/10 06:52:30;;;;;;;;;;;;;;;;;;5044977;28;19909;-69
2021/10/10 06:54:55;;;;;;;;;;;;;;;;;;5032800;28;19969;-69
2021/10/10 06:57:21;;;;;;;;;;;;;;;;;;5040001;28;19906;-69
2021/10/10 06:59:46;;;;;;;;;;;;;;;;;;5044393;28;20925;-69
2021/10/10 07:02:11;;;;;;;;;;;;;;;;;;5044937;28;19913;-70
2021/10/10 07:04:36;;;;;;;;;;;;;;;;;;5047258;28;19917;-69
2021/10/10 07:07:02;;;;;;;;;;;;;;;;;;5041682;28;19961;-69
2021/10/10 07:09:27;;;;;;;;;;;;;;;;;;5042467;28;19956;-69
2021/10/10 07:11:52;;;;;;;;;;;;;;;;;;5043208;28;19905;-69
2021/10/10 07:14:17;;;;;;;;;;;;;;;;;;5044967;28;19905;-69
2021/10/10 07:16:43;;;;;;;;;;;;;;;;;;5043793;28;19985;-70
2021/10/10 07:19:08;;;;;;;;;;;;;;;;;;5033378;28;19937;-69
2021/10/10 07:27:02;;;;;;;;;;;;;;;;;;5047078;28;19925;-70
2021/10/10 07:29:27;;;;;;;;;;;;;;;;;;5045442;28;19919;-69
2021/10/10 07:31:52;;;;;;;;;;;;;;;;;;5042552;28;19913;-69
2021/10/10 07:34:17;;;;;;;;;;;;;;;;;;5045583;28;19959;-70
2021/10/10 07:36:43;;;;;;;;;;;;;;;;;;5043977;28;19914;-69
2021/10/10 07:39:08;;;;;;;;;;;;;;;;;;5045269;28;20135;-70
2021/10/10 07:41:38;;;;;;;;;;;;;;;;;;5042085;28;19925;-70
2021/10/10 07:44:06;;;;;;;;;;;;;;;;;;5042842;28;19925;-70
2021/10/10 07:46:36;;;;;;;;;;;;;;;;;;5043766;28;19929;-70
2021/10/10 07:49:01;;;;;;;;;;;;;;;;;;5046456;28;19912;-70
2021/10/10 07:51:28;;;;;;;;;;;;;;;;;;5043239;28;19906;-70
2021/10/10 07:53:53;;;;;;;;;;;;;;;;;;5032166;28;19929;-70
2021/10/10 07:56:19;;;;;;;;;;;;;;;;;;5033492;28;19909;-70
2021/10/10 07:58:44;;;;;;;;;;;;;;;;;;5044268;28;19921;-70
2021/10/10 08:01:09;;;;;;;;;;;;;;;;;;5041840;28;19953;-70
2021/10/10 08:03:35;;;;;;;;;;;;;;;;;;5048621;28;19922;-70
2021/10/10 08:06:00;;;;;;;;;;;;;;;;;;5042907;28;19917;-70
2021/10/10 08:08:25;;;;;;;;;;;;;;;;;;5009224;28;19917;-70
2021/10/10 08:10:50;;;;;;;;;;;;;;;;;;5046496;28;20135;-70
2021/10/10 08:13:16;;;;;;;;;;;;;;;;;;5045559;28;19916;-70
2021/10/10 08:15:42;;;;;;;;;;;;;;;;;;5045510;28;19906;-69
2021/10/10 08:18:07;;;;;;;;;;;;;;;;;;5040145;28;19912;-69
2021/10/10 08:20:32;;;;;;;;;;;;;;;;;;5034035;28;19925;-69
2021/10/10 08:22:58;;;;;;;;;;;;;;;;;;5040673;28;19916;-69
2021/10/10 08:25:23;;;;;;;;;;;;;;;;;;5042717;28;19906;-69
2021/10/10 08:27:48;;;;;;;;;;;;;;;;;;5044462;28;19948;-70
2021/10/10 08:30:14;;;;;;;;;;;;;;;;;;5046553;28;19924;-69
2021/10/10 08:32:39;;;;;;;;;;;;;;;;;;5044521;28;19913;-69
2021/10/10 08:35:04;;;;;;;;;;;;;;;;;;5047242;28;19905;-69
2021/10/10 08:37:29;;;;;;;;;;;;;;;;;;5045738;28;19992;-69
2021/10/10 08:39:54;;;;;;;;;;;;;;;;;;5036017;28;20024;-70
2021/10/10 08:42:20;;;;;;;;;;;;;;;;;;5044507;28;19987;-69
2021/10/10 08:44:48;;;;;;;;;;;;;;;;;;5046704;28;19905;-70
2021/10/10 08:47:17;;;;;;;;;;;;;;;;;;5052207;28;19905;-70
2021/10/10 08:49:42;;;;;;;;;;;;;;;;;;5045947;28;19948;-70
2021/10/10 08:52:09;;;;;;;;;;;;;;;;;;5036030;28;19928;-69
2021/10/10 08:54:35;;;;;;;;;;;;;;;;;;5036504;28;19920;-70
2021/10/10 08:57:01;;;;;;;;;;;;;;;;;;5041527;28;19905;-70
2021/10/10 08:59:27;;;;;;;;;;;;;;;;;;5046747;28;20008;-69
2021/10/10 09:01:52;;;;;;;;;;;;;;;;;;5035008;28;19905;-69
2021/10/10 09:04:18;;;;;;;;;;;;;;;;;;5034705;28;19936;-69
2021/10/10 09:06:43;;;;;;;;;;;;;;;;;;5047374;28;19921;-69
2021/10/10 09:09:08;;;;;;;;;;;;;;;;;;5046597;28;19972;-69
2021/10/10 09:11:33;;;;;;;;;;;;;;;;;;5047644;28;19925;-69
2021/10/10 09:13:59;;;;;;;;;;;;;;;;;;5046204;28;19905;-68
2021/10/10 09:16:24;;;;;;;;;;;;;;;;;;5051457;28;19951;-68
2021/10/10 09:18:49;;;;;;;;;;;;;;;;;;5050236;28;20236;-68
2021/10/10 09:21:14;;;;;;;;;;;;;;;;;;5045911;28;19905;-69
2021/10/10 09:23:40;;;;;;;;;;;;;;;;;;5044923;28;19921;-68
2021/10/10 09:26:05;;;;;;;;;;;;;;;;;;5046419;28;19925;-68
2021/10/10 09:28:31;;;;;;;;;;;;;;;;;;5035290;28;19928;-69
2021/10/10 09:30:57;;;;;;;;;;;;;;;;;;5044534;28;19913;-68
2021/10/10 09:33:23;;;;;;;;;;;;;;;;;;5046769;28;19924;-68
2021/10/10 09:35:48;;;;;;;;;;;;;;;;;;5035258;28;19941;-69
2021/10/10 09:38:25;;;;;;;;;;;;;;;;;;5044510;28;19944;-69
2021/10/10 09:40:59;;;;;;;;;;;;;;;;;;5046620;28;19932;-69
2021/10/10 09:43:25;;;;;;;;;;;;;;;;;;5048095;28;19928;-69
2021/10/10 09:45:54;;;;;;;;;;;;;;;;;;5044108;28;19901;-69
2021/10/10 09:48:19;;;;;;;;;;;;;;;;;;5031161;28;19928;-69
2021/10/10 09:50:45;;;;;;;;;;;;;;;;;;5043905;28;19921;-68
2021/10/10 09:53:10;;;;;;;;;;;;;;;;;;5046974;28;19905;-69
2021/10/10 09:55:35;;;;;;;;;;;;;;;;;;5047207;28;19906;-69
2021/10/10 09:58:00;;;;;;;;;;;;;;;;;;5045699;28;19909;-69
2021/10/10 10:00:25;;;;;;;;;;;;;;;;;;5051422;28;20044;-69
2021/10/10 10:02:51;;;;;;;;;;;;;;;;;;5041606;28;19943;-69
2021/10/10 10:05:16;;;;;;;;;;;;;;;;;;5042890;28;19902;-69
2021/10/10 10:07:42;;;;;;;;;;;;;;;;;;5036044;28;19962;-69
2021/10/10 10:10:07;;;;;;;;;;;;;;;;;;5044454;28;19905;-69
2021/10/10 10:12:32;;;;;;;;;;;;;;;;;;5043744;28;19906;-69
2021/10/10 10:14:59;;;;;;;;;;;;;;;;;;5038212;28;19933;-69
2021/10/10 10:17:25;;;;;;;;;;;;;;;;;;5035952;28;19928;-70
2021/10/10 10:19:50;;;;;;;;;;;;;;;;;;5040003;28;19972;-70
2021/10/10 10:22:15;;;;;;;;;;;;;;;;;;5042609;28;19914;-69
2021/10/10 10:24:42;;;;;;;;;;;;;;;;;;5015890;28;19906;-70
2021/10/10 10:27:07;;;;;;;;;;;;;;;;;;5041193;28;20354;-69
2021/10/10 10:29:32;;;;;;;;;;;;;;;;;;5018333;28;19953;-69
2021/10/10 10:31:57;;;;;;;;;;;;;;;;;;5035587;28;19940;-70
2021/10/10 10:34:23;;;;;;;;;;;;;;;;;;5025880;28;19912;-70
2021/10/10 10:36:48;;;;;;;;;;;;;;;;;;5037501;28;19914;-70
2021/10/10 10:39:13;;;;;;;;;;;;;;;;;;5027841;28;19960;-74
2021/10/10 10:41:38;;;;;;;;;;;;;;;;;;5038577;28;19913;-74
2021/10/10 10:44:04;;;;;;;;;;;;;;;;;;5024476;28;19926;-74
2021/10/10 10:46:29;;;;;;;;;;;;;;;;;;5041467;28;19991;-74
2021/10/10 10:48:54;;;;;;;;;;;;;;;;;;5039223;28;19933;-74
2021/10/10 10:51:23;;;;;;;;;;;;;;;;;;5041684;28;19961;-73
2021/10/10 10:53:49;;;;;;;;;;;;;;;;;;5035854;28;19928;-74
2021/10/10 10:56:14;;;;;;;;;;;;;;;;;;5037708;28;19920;-72
2021/10/10 10:58:39;;;;;;;;;;;;;;;;;;5043606;28;19947;-72
2021/10/10 11:01:05;;;;;;;;;;;;;;;;;;5038234;28;19969;-72
2021/10/10 11:03:30;;;;;;;;;;;;;;;;;;5040635;28;19955;-72
2021/10/10 11:05:57;;;;;;;;;;;;;;;;;;5037077;28;19953;-72
2021/10/10 11:08:22;;;;;;;;;;;;;;;;;;5030900;28;19913;-73
2021/10/10 11:10:47;;;;;;;;;;;;;;;;;;5044801;28;19932;-73
2021/10/10 11:13:12;;;;;;;;;;;;;;;;;;5025421;28;19916;-73
2021/10/10 11:15:37;;;;;;;;;;;;;;;;;;5042180;28;19925;-73
2021/10/10 11:18:03;;;;;;;;;;;;;;;;;;5036714;28;19916;-73
2021/10/10 11:20:28;;;;;;;;;;;;;;;;;;5036759;28;19905;-74
2021/10/10 11:22:53;;;;;;;;;;;;;;;;;;5044690;28;19913;-74
2021/10/10 11:25:18;;;;;;;;;;;;;;;;;;5034327;28;19905;-74
2021/10/10 11:27:44;;;;;;;;;;;;;;;;;;5042401;28;19925;-74
2021/10/10 11:30:09;;;;;;;;;;;;;;;;;;5034999;28;19912;-73
2021/10/10 11:32:34;;;;;;;;;;;;;;;;;;5004686;28;19913;-73
2021/10/10 11:34:59;;;;;;;;;;;;;;;;;;5028283;28;19922;-73
2021/10/10 11:37:24;;;;;;;;;;;;;;;;;;5033210;28;19905;-73
2021/10/10 11:39:50;;;;;;;;;;;;;;;;;;5041310;28;19906;-74
2021/10/10 11:42:15;;;;;;;;;;;;;;;;;;5034959;28;19920;-73
2021/10/10 11:44:40;;;;;;;;;;;;;;;;;;5035022;28;20088;-73
2021/10/10 11:47:07;;;;;;;;;;;;;;;;;;5042326;28;19944;-74
2021/10/10 11:49:39;;;;;;;;;;;;;;;;;;5039054;28;19968;-74
2021/10/10 11:52:05;;;;;;;;;;;;;;;;;;5008390;28;19917;-74
2021/10/10 11:54:38;;;;;;;;;;;;;;;;;;5036347;28;19959;-74
2021/10/10 11:57:04;;;;;;;;;;;;;;;;;;5036119;28;19936;-72
2021/10/10 11:59:29;;;;;;;;;;;;;;;;;;5041269;28;19913;-73
2021/10/10 12:01:54;;;;;;;;;;;;;;;;;;5022496;28;19905;-73
2021/10/10 12:04:19;;;;;;;;;;;;;;;;;;5041333;28;19944;-73
2021/10/10 12:06:44;;;;;;;;;;;;;;;;;;5041053;28;19917;-73
2021/10/10 12:09:12;;;;;;;;;;;;;;;;;;5035781;28;20281;-73
2021/10/10 12:11:38;;;;;;;;;;;;;;;;;;5031232;28;19967;-73
2021/10/10 12:14:03;;;;;;;;;;;;;;;;;;5026174;28;19913;-73
2021/10/10 12:16:29;;;;;;;;;;;;;;;;;;5032658;28;19905;-74
2021/10/10 12:18:54;;;;;;;;;;;;;;;;;;5038174;28;19925;-73
2021/10/10 12:21:19;;;;;;;;;;;;;;;;;;5037169;28;19948;-73
2021/10/10 12:23:44;;;;;;;;;;;;;;;;;;5042234;28;20240;-73
2021/10/10 12:26:10;;;;;;;;;;;;;;;;;;5035556;28;19933;-73
2021/10/10 12:28:35;;;;;;;;;;;;;;;;;;5042999;28;19905;-73
2021/10/10 12:31:00;;;;;;;;;;;;;;;;;;5037458;28;19929;-73
2021/10/10 12:33:25;;;;;;;;;;;;;;;;;;5036567;28;19928;-72
2021/10/10 12:35:50;;;;;;;;;;;;;;;;;;5041091;28;19925;-73
2021/10/10 12:38:16;;;;;;;;;;;;;;;;;;5025860;28;19905;-72
2021/10/10 12:40:41;;;;;;;;;;;;;;;;;;5041989;28;19925;-73
2021/10/10 12:43:07;;;;;;;;;;;;;;;;;;5033825;28;19964;-73
2021/10/10 12:45:32;;;;;;;;;;;;;;;;;;5024310;28;19924;-73
2021/10/10 12:47:58;;;;;;;;;;;;;;;;;;5031051;28;19976;-73
2021/10/10 12:50:23;;;;;;;;;;;;;;;;;;5036812;28;19914;-73
2021/10/10 12:52:48;;;;;;;;;;;;;;;;;;5032496;28;19913;-74
2021/10/10 12:55:14;;;;;;;;;;;;;;;;;;5043079;28;20104;-74
2021/10/10 12:57:39;;;;;;;;;;;;;;;;;;5036133;28;19913;-73
2021/10/10 13:00:07;;;;;;;;;;;;;;;;;;5045376;28;19957;-73
2021/10/10 13:02:32;;;;;;;;;;;;;;;;;;5036699;28;19940;-73
2021/10/10 13:04:57;;;;;;;;;;;;;;;;;;5046689;28;19936;-74
2021/10/10 13:07:22;;;;;;;;;;;;;;;;;;5035394;28;19902;-73
2021/10/10 13:09:48;;;;;;;;;;;;;;;;;;5036755;28;19913;-74
2021/10/10 13:12:13;;;;;;;;;;;;;;;;;;5041594;28;20009;-73
2021/10/10 13:14:38;;;;;;;;;;;;;;;;;;5038535;28;19958;-73
2021/10/10 13:17:03;;;;;;;;;;;;;;;;;;5046528;28;19905;-73
2021/10/10 13:19:29;;;;;;;;;;;;;;;;;;5040262;28;19920;-73
2021/10/10 13:21:54;;;;;;;;;;;;;;;;;;5037612;28;19913;-74
2021/10/10 13:24:19;;;;;;;;;;;;;;;;;;5046405;28;19913;-73
2021/10/10 13:26:44;;;;;;;;;;;;;;;;;;5041393;28;19921;-73
2021/10/10 13:29:15;;;;;;;;;;;;;;;;;;5045159;28;19913;-73
2021/10/10 13:31:40;;;;;;;;;;;;;;;;;;5040242;28;19989;-73
2021/10/10 13:34:05;;;;;;;;;;;;;;;;;;5039845;28;19905;-73
2021/10/10 13:36:30;;;;;;;;;;;;;;;;;;5045012;28;19906;-73
2021/10/10 13:38:57;;;;;;;;;;;;;;;;;;5029479;28;19913;-72
2021/10/10 13:41:22;;;;;;;;;;;;;;;;;;5036348;28;19901;-72
2021/10/10 13:43:48;;;;;;;;;;;;;;;;;;5039380;28;19930;-73
2021/10/10 13:46:13;;;;;;;;;;;;;;;;;;5039131;28;19943;-73
2021/10/10 13:48:38;;;;;;;;;;;;;;;;;;5045729;28;19949;-73
2021/10/10 13:51:03;;;;;;;;;;;;;;;;;;5039325;28;19928;-73
2021/10/10 13:53:29;;;;;;;;;;;;;;;;;;5045531;28;20048;-72
2021/10/10 13:55:54;;;;;;;;;;;;;;;;;;5028555;28;19933;-73
2021/10/10 13:58:19;;;;;;;;;;;;;;;;;;5038515;28;19921;-73
2021/10/10 14:00:44;;;;;;;;;;;;;;;;;;5032961;28;19935;-73
2021/10/10 14:03:10;;;;;;;;;;;;;;;;;;5038019;28;19932;-72
2021/10/10 14:05:35;;;;;;;;;;;;;;;;;;5050278;28;19912;-72
2021/10/10 14:08:00;;;;;;;;;;;;;;;;;;5041390;28;19931;-73
2021/10/10 14:10:25;;;;;;;;;;;;;;;;;;5036119;28;19906;-73
2021/10/10 14:12:51;;;;;;;;;;;;;;;;;;5043484;28;19913;-73
2021/10/10 14:15:16;;;;;;;;;;;;;;;;;;5038622;28;19914;-73
2021/10/10 14:17:41;;;;;;;;;;;;;;;;;;5043994;28;19913;-72
2021/10/10 14:20:06;;;;;;;;;;;;;;;;;;5037981;28;19909;-73
2021/10/10 14:22:31;;;;;;;;;;;;;;;;;;5037563;28;19925;-72
2021/10/10 14:24:57;;;;;;;;;;;;;;;;;;5050257;28;19913;-73
2021/10/10 14:27:22;;;;;;;;;;;;;;;;;;5038840;28;19911;-72
2021/10/10 14:29:47;;;;;;;;;;;;;;;;;;5050848;28;20030;-73
2021/10/10 14:32:12;;;;;;;;;;;;;;;;;;5039182;28;19921;-73
2021/10/10 14:34:38;;;;;;;;;;;;;;;;;;5041935;28;19906;-73
2021/10/10 14:37:04;;;;;;;;;;;;;;;;;;5047988;28;19905;-73
2021/10/10 14:39:31;;;;;;;;;;;;;;;;;;5040748;28;19913;-73
2021/10/10 14:42:02;;;;;;;;;;;;;;;;;;5046339;28;19963;-73
2021/10/10 14:47:15;;;;;;;;;;;;;;;;;;5034830;28;19913;-73
2021/10/10 14:49:38;;;;;;;;;;;;;;;;;;5043270;28;19909;-74
2021/10/10 14:52:03;;;;;;;;;;;;;;;;;;5038937;28;19961;-73
2021/10/10 14:54:28;;;;;;;;;;;;;;;;;;5010869;28;19992;-73
2021/10/10 14:56:55;;;;;;;;;;;;;;;;;;5042606;28;19901;-74
2021/10/10 14:59:21;;;;;;;;;;;;;;;;;;5035934;28;19906;-73
2021/10/10 15:01:46;;;;;;;;;;;;;;;;;;5041326;28;19972;-74
2021/10/10 15:04:11;;;;;;;;;;;;;;;;;;5043843;28;19913;-73
2021/10/10 15:06:36;;;;;;;;;;;;;;;;;;5036860;28;19922;-73
2021/10/10 15:09:02;;;;;;;;;;;;;;;;;;5044176;28;19901;-74
2021/10/10 15:11:27;;;;;;;;;;;;;;;;;;5025530;28;19925;-74
2021/10/10 15:13:53;;;;;;;;;;;;;;;;;;5042446;28;20106;-74
2021/10/10 15:16:18;;;;;;;;;;;;;;;;;;4987985;28;19906;-73
2021/10/10 15:18:43;;;;;;;;;;;;;;;;;;5036314;28;19905;-74
2021/10/10 15:21:08;;;;;;;;;;;;;;;;;;5045239;28;20000;-73
2021/10/10 15:23:34;;;;;;;;;;;;;;;;;;5037406;28;19928;-73
2021/10/10 15:25:59;;;;;;;;;;;;;;;;;;5023533;28;19905;-73
2021/10/10 15:28:24;;;;;;;;;;;;;;;;;;5035117;28;19906;-73
2021/10/10 15:30:49;;;;;;;;;;;;;;;;;;5036907;28;19905;-74
2021/10/10 15:33:14;;;;;;;;;;;;;;;;;;5043873;28;19929;-74
2021/10/10 15:35:40;;;;;;;;;;;;;;;;;;5027127;28;19943;-73
2021/10/10 15:38:05;;;;;;;;;;;;;;;;;;5023203;28;19959;-74
2021/10/10 15:40:31;;;;;;;;;;;;;;;;;;5035103;28;20049;-74
2021/10/10 15:42:56;;;;;;;;;;;;;;;;;;5029356;28;19988;-73
2021/10/10 15:45:21;;;;;;;;;;;;;;;;;;5028696;28;19928;-74
2021/10/10 15:47:46;;;;;;;;;;;;;;;;;;5033077;28;19913;-74
2021/10/10 15:50:12;;;;;;;;;;;;;;;;;;5038831;28;19920;-73
2021/10/10 15:52:37;;;;;;;;;;;;;;;;;;5032695;28;19902;-73
2021/10/10 15:55:02;;;;;;;;;;;;;;;;;;5033253;28;19913;-74
2021/10/10 15:57:27;;;;;;;;;;;;;;;;;;5041860;28;19925;-72
2021/10/10 15:59:53;;;;;;;;;;;;;;;;;;5032028;28;19905;-73
2021/10/10 16:02:18;;;;;;;;;;;;;;;;;;5040024;28;19949;-73
2021/10/10 16:04:43;;;;;;;;;;;;;;;;;;5018199;28;19905;-73
2021/10/10 16:07:08;;;;;;;;;;;;;;;;;;5033916;28;19905;-72
2021/10/10 16:09:34;;;;;;;;;;;;;;;;;;5040564;28;19905;-72
2021/10/10 16:11:59;;;;;;;;;;;;;;;;;;5032865;28;20212;-72
2021/10/10 16:14:24;;;;;;;;;;;;;;;;;;5042415;28;19905;-71
2021/10/10 16:16:50;;;;;;;;;;;;;;;;;;5024285;28;19902;-72
2021/10/10 16:19:15;;;;;;;;;;;;;;;;;;5024435;28;19924;-72
2021/10/10 16:21:41;;;;;;;;;;;;;;;;;;5041205;28;19913;-72
2021/10/10 16:24:06;;;;;;;;;;;;;;;;;;5032565;28;19945;-70
2021/10/10 16:26:31;;;;;;;;;;;;;;;;;;5014202;28;19906;-69
2021/10/10 16:28:56;;;;;;;;;;;;;;;;;;5036829;28;20109;-71
2021/10/10 16:31:22;;;;;;;;;;;;;;;;;;5031653;28;19905;-71
2021/10/10 16:33:49;;;;;;;;;;;;;;;;;;5021644;28;19905;-71
2021/10/10 16:36:21;;;;;;;;;;;;;;;;;;5031675;28;19905;-71
2021/10/10 16:38:50;;;;;;;;;;;;;;;;;;5030789;28;19943;-71
2021/10/10 16:43:46;;;;;;;;;;;;;;;;;;5031299;28;19921;-71
2021/10/10 16:46:11;;;;;;;;;;;;;;;;;;5037532;28;19913;-72